createdAt,value
2023-02-04T00:04:55.008Z,1.00
2023-02-04T00:09:53.298Z,1.00
2023-02-04T00:14:51.871Z,1.10
2023-02-04T00:19:52.393Z,1.30
2023-02-04T00:25:15.076Z,1.73
2023-02-04T00:30:15.057Z,1.17
2023-02-04T00:35:15.201Z,1.27
2023-02-04T00:40:14.772Z,1.37
2023-02-04T00:45:14.085Z,1.10
2023-02-04T00:50:12.349Z,1.23
2023-02-04T00:55:12.772Z,1.30
2023-02-04T01:00:12.851Z,1.00
2023-02-04T01:05:11.807Z,1.20
2023-02-04T01:10:12.513Z,1.10
2023-02-04T01:15:11.905Z,1.10
2023-02-04T01:20:12.479Z,1.10
2023-02-04T01:25:12.010Z,1.20
2023-02-04T01:30:15.761Z,1.20
2023-02-04T01:35:14.258Z,1.20
2023-02-04T01:40:14.905Z,1.17
2023-02-04T01:45:13.518Z,1.30
2023-02-04T01:50:14.750Z,1.40
2023-02-04T01:55:18.922Z,1.70
2023-02-04T02:00:19.658Z,1.20
2023-02-04T02:05:22.554Z,1.40
2023-02-04T02:10:23.037Z,1.30
2023-02-04T02:15:22.282Z,1.30
2023-02-04T02:20:23.861Z,1.30
2023-02-04T02:25:23.734Z,1.30
2023-02-04T02:30:23.204Z,1.53
2023-02-04T02:35:21.634Z,1.20
2023-02-04T02:40:21.448Z,1.33
2023-02-04T02:45:24.795Z,1.20
2023-02-04T02:50:27.832Z,1.17
2023-02-04T02:55:28.800Z,1.60
2023-02-04T03:00:31.653Z,1.50
2023-02-04T03:05:33.746Z,1.70
2023-02-04T03:10:32.949Z,1.20
2023-02-04T03:15:33.787Z,1.80
2023-02-04T03:20:33.872Z,1.30
2023-02-04T03:25:32.433Z,1.60
2023-02-04T03:30:33.039Z,1.27
2023-02-04T03:35:31.856Z,1.50
2023-02-04T03:40:30.687Z,1.43
2023-02-04T03:45:37.465Z,1.40
2023-02-04T03:50:44.342Z,1.47
2023-02-04T03:55:42.870Z,1.50
2023-02-04T04:00:41.538Z,1.80
2023-02-04T04:05:39.718Z,1.60
2023-02-04T04:10:41.930Z,1.80
2023-02-04T04:15:40.598Z,1.70
2023-02-04T04:20:39.670Z,1.53
2023-02-04T04:25:39.682Z,1.80
2023-02-04T04:30:38.481Z,2.20
2023-02-04T04:35:37.045Z,1.70
2023-02-04T04:40:35.594Z,2.00
2023-02-04T04:45:35.766Z,1.60
2023-02-04T04:50:34.892Z,1.90
2023-02-04T04:55:33.858Z,1.47
2023-02-04T05:00:32.718Z,2.23
2023-02-04T05:05:32.868Z,2.10
2023-02-04T05:10:31.769Z,1.83
2023-02-04T05:15:30.404Z,1.30
2023-02-04T05:20:29.217Z,1.83
2023-02-04T05:25:29.922Z,1.70
2023-02-04T05:30:28.558Z,1.47
2023-02-04T05:35:27.109Z,1.60
2023-02-04T05:40:25.296Z,1.70
2023-02-04T05:45:25.201Z,2.13
2023-02-04T05:50:23.648Z,1.73
2023-02-04T05:55:22.121Z,2.03
2023-02-04T06:00:21.018Z,1.93
2023-02-04T06:05:20.860Z,1.83
2023-02-04T06:10:21.504Z,1.80
2023-02-04T06:15:20.873Z,1.70
2023-02-04T06:27:08.735Z,2.53
2023-02-04T06:32:07.417Z,1.90
2023-02-04T06:37:06.005Z,2.60
2023-02-04T06:42:04.531Z,1.80
2023-02-04T06:47:05.426Z,1.70
2023-02-04T06:52:03.954Z,2.13
2023-02-04T06:57:07.059Z,2.33
2023-02-04T07:02:08.128Z,1.90
2023-02-04T07:07:06.679Z,2.13
2023-02-04T07:12:06.009Z,2.33
2023-02-04T07:17:04.779Z,2.90
2023-02-04T07:22:04.788Z,2.40
2023-02-04T07:27:03.260Z,1.90
2023-02-04T07:32:01.922Z,2.50
2023-02-04T07:37:00.500Z,2.63
2023-02-04T07:42:00.382Z,3.10
2023-02-04T07:47:05.259Z,3.20
2023-02-04T07:52:03.709Z,2.67
2023-02-04T07:57:03.530Z,2.20
2023-02-04T08:02:02.507Z,3.57
2023-02-04T08:07:01.033Z,3.90
2023-02-04T08:12:00.393Z,2.70
2023-02-04T08:16:59.952Z,3.03
2023-02-04T08:21:58.460Z,2.77
2023-02-04T08:26:58.692Z,2.90
2023-02-04T08:31:57.229Z,2.80
2023-02-04T08:36:57.135Z,3.03
2023-02-04T08:41:55.332Z,2.43
2023-02-04T08:46:53.958Z,2.77
2023-02-04T08:51:52.560Z,2.53
2023-02-04T08:56:52.479Z,2.23
2023-02-04T09:01:52.807Z,2.50
2023-02-04T09:06:51.728Z,3.00
2023-02-04T09:11:51.646Z,2.97
2023-02-04T09:23:47.028Z,2.17
2023-02-04T09:28:48.275Z,2.07
2023-02-04T09:33:46.839Z,1.80
2023-02-04T09:38:45.697Z,1.97
2023-02-04T09:43:47.703Z,1.93
2023-02-04T09:48:45.959Z,1.77
2023-02-04T09:53:44.222Z,2.00
2023-02-04T09:58:43.794Z,2.07
2023-02-04T10:03:47.860Z,1.60
2023-02-04T10:08:47.892Z,1.60
2023-02-04T10:13:50.893Z,1.57
2023-02-04T10:18:51.100Z,1.10
2023-02-04T10:23:52.433Z,1.40
2023-02-04T10:28:51.027Z,1.20
2023-02-04T10:33:50.674Z,1.20
2023-02-04T10:39:01.447Z,1.03
2023-02-04T10:44:07.702Z,1.30
2023-02-04T10:49:18.125Z,0.97
2023-02-04T10:54:32.452Z,1.13
2023-02-04T10:59:30.832Z,1.33
2023-02-04T11:04:30.718Z,1.23
2023-02-04T11:09:29.276Z,1.30
2023-02-04T11:14:30.837Z,1.50
2023-02-04T11:19:39.144Z,1.27
2023-02-04T11:24:37.685Z,1.00
2023-02-04T11:29:39.073Z,1.13
2023-02-04T11:34:49.878Z,1.03
2023-02-04T11:39:50.410Z,1.30
2023-02-04T11:44:57.157Z,1.17
2023-02-04T11:49:59.589Z,0.90
2023-02-04T11:55:00.421Z,1.27
2023-02-04T12:00:01.131Z,1.07
2023-02-04T12:05:14.021Z,1.00
2023-02-04T12:10:15.881Z,1.00
2023-02-04T12:15:24.360Z,1.17
2023-02-04T12:20:24.228Z,0.87
2023-02-04T12:25:23.294Z,0.70
2023-02-04T12:30:22.087Z,0.80
2023-02-04T12:35:21.247Z,0.90
2023-02-04T12:40:22.994Z,1.00
2023-02-04T12:45:22.143Z,0.70
2023-02-04T12:50:22.961Z,1.40
2023-02-04T12:55:23.626Z,1.00
2023-02-04T13:00:23.558Z,0.87
2023-02-04T13:05:22.267Z,1.13
2023-02-04T13:10:24.351Z,1.00
2023-02-04T13:15:23.069Z,0.90
2023-02-04T13:20:21.846Z,1.00
2023-02-04T13:25:20.493Z,1.20
2023-02-04T13:30:20.684Z,0.93
2023-02-04T13:35:19.823Z,1.20
2023-02-04T13:40:18.884Z,1.00
2023-02-04T13:45:19.357Z,1.30
2023-02-04T13:50:19.655Z,1.10
2023-02-04T13:55:18.320Z,0.80
2023-02-04T14:00:17.321Z,0.80
2023-02-04T14:05:16.649Z,1.00
2023-02-04T14:10:18.448Z,1.17
2023-02-04T14:15:17.001Z,1.80
2023-02-04T14:27:08.055Z,0.90
2023-02-04T14:32:06.879Z,1.30
2023-02-04T14:37:05.576Z,1.03
2023-02-04T14:42:05.498Z,1.30
2023-02-04T14:47:03.991Z,0.80
2023-02-04T14:52:04.302Z,1.00
2023-02-04T14:57:02.526Z,1.40
2023-02-04T15:02:02.455Z,1.70
2023-02-04T15:07:01.222Z,1.40
2023-02-04T15:11:59.830Z,1.80
2023-02-04T15:16:58.456Z,2.30
2023-02-04T15:21:58.120Z,1.00
2023-02-04T15:26:56.855Z,1.10
2023-02-04T15:31:56.600Z,1.37
2023-02-04T15:36:55.149Z,1.90
2023-02-04T15:41:54.705Z,1.70
2023-02-04T15:46:54.318Z,1.37
2023-02-04T15:51:52.776Z,2.17
2023-02-04T15:56:51.274Z,2.13
2023-02-04T16:01:51.637Z,1.47
2023-02-04T16:06:58.214Z,1.50
2023-02-04T16:11:57.409Z,1.40
2023-02-04T16:16:56.930Z,2.33
2023-02-04T16:21:55.399Z,2.87
2023-02-04T16:26:54.078Z,3.40
2023-02-04T16:31:54.283Z,4.00
2023-02-04T16:36:54.167Z,3.00
2023-02-04T16:41:52.714Z,3.10
2023-02-04T16:46:51.546Z,1.77
2023-02-04T16:51:50.220Z,3.17
2023-02-04T16:56:50.101Z,3.10
2023-02-04T17:01:48.714Z,2.63
2023-02-04T17:06:47.261Z,2.57
2023-02-04T17:11:45.574Z,3.30
2023-02-04T17:16:46.460Z,5.50
2023-02-04T17:21:45.133Z,4.80
2023-02-04T17:26:43.627Z,4.87
2023-02-04T17:31:43.670Z,2.73
2023-02-04T17:36:43.618Z,5.20
2023-02-04T17:41:42.142Z,3.80
2023-02-04T17:46:40.351Z,4.40
2023-02-04T17:51:38.935Z,3.77
2023-02-04T17:56:38.813Z,4.30
2023-02-04T18:01:37.382Z,4.03
2023-02-04T18:06:36.724Z,5.73
2023-02-04T18:11:41.106Z,3.80
2023-02-04T18:16:41.899Z,3.30
2023-02-04T18:21:41.186Z,6.50
2023-02-04T18:26:45.579Z,6.00
2023-02-04T18:31:50.519Z,5.87
2023-02-04T18:36:49.532Z,25.47
2023-02-04T18:41:52.000Z,10.30
2023-02-04T18:46:51.105Z,11.03
2023-02-04T18:51:49.675Z,6.43
2023-02-04T18:56:49.744Z,7.20
2023-02-04T19:01:49.522Z,7.70
2023-02-04T19:06:50.058Z,5.60
2023-02-04T19:11:53.010Z,4.00
2023-02-04T19:16:53.071Z,4.83
2023-02-04T19:21:51.981Z,3.93
2023-02-04T19:26:57.044Z,4.77
2023-02-04T19:31:59.645Z,5.37
2023-02-04T19:36:58.257Z,5.67
2023-02-04T19:41:58.965Z,5.73
2023-02-04T19:46:59.399Z,4.33
2023-02-04T19:51:59.156Z,4.43
2023-02-04T19:56:58.932Z,4.17
2023-02-04T20:02:04.142Z,4.40
2023-02-04T20:07:03.310Z,8.07
2023-02-04T20:12:06.621Z,9.93
2023-02-04T20:17:27.785Z,8.50
2023-02-04T20:22:47.217Z,4.30
2023-02-04T20:27:49.310Z,4.33
2023-02-04T20:32:50.384Z,3.67
2023-02-04T20:37:53.946Z,3.60
2023-02-04T20:42:58.928Z,3.07
2023-02-04T20:48:01.007Z,3.93
2023-02-04T20:53:22.004Z,3.53
2023-02-04T20:58:24.316Z,3.80
2023-02-04T21:03:28.784Z,3.57
2023-02-04T21:08:45.410Z,3.20
2023-02-04T21:13:44.903Z,2.20
2023-02-04T21:18:43.354Z,2.83
2023-02-04T21:23:41.851Z,2.30
2023-02-04T21:28:40.327Z,2.50
2023-02-04T21:33:40.131Z,2.53
2023-02-04T21:38:38.626Z,2.90
2023-02-04T21:43:37.252Z,2.20
2023-02-04T21:48:35.480Z,2.60
2023-02-04T21:53:35.343Z,2.30
2023-02-04T21:58:33.961Z,2.30
2023-02-04T22:03:32.106Z,2.60
2023-02-04T22:08:30.603Z,2.50
2023-02-04T22:13:47.704Z,2.40
2023-02-04T22:18:45.841Z,2.17
2023-02-04T22:23:44.308Z,2.17
2023-02-04T22:28:44.172Z,1.83
2023-02-04T22:33:42.376Z,1.70
2023-02-04T22:38:43.502Z,1.57
2023-02-04T22:43:43.590Z,2.03
2023-02-04T22:49:07.886Z,2.37
2023-02-04T22:54:06.477Z,1.60
2023-02-04T22:59:06.454Z,2.43
2023-02-04T23:04:04.977Z,2.60
2023-02-04T23:09:03.201Z,1.80
2023-02-04T23:14:02.070Z,2.03
2023-02-04T23:19:02.302Z,1.53
2023-02-04T23:24:01.234Z,1.80
2023-02-04T23:34:19.362Z,1.43
2023-02-04T23:39:17.891Z,2.57
2023-02-04T23:44:16.710Z,1.57
2023-02-04T23:49:15.938Z,1.60
2023-02-04T23:54:15.863Z,1.87
2023-02-04T23:59:14.609Z,1.87
